createdAt,value
2023-03-22T00:01:23.074Z,96083.78
2023-03-22T00:03:50.965Z,96073.59
2023-03-22T00:06:18.050Z,96119.91
2023-03-22T00:08:45.493Z,96116.72
2023-03-22T00:11:12.888Z,96110.03
2023-03-22T00:13:39.633Z,96082.38
2023-03-22T00:16:06.851Z,96101.88
2023-03-22T00:18:33.656Z,96089.50
2023-03-22T00:21:00.723Z,96095.41
2023-03-22T00:23:28.592Z,96065.75
2023-03-22T00:25:55.641Z,96066.84
2023-03-22T00:28:22.326Z,96046.75
2023-03-22T00:30:59.792Z,96071.06
2023-03-22T00:33:31.158Z,96074.91
2023-03-22T00:36:00.914Z,96079.56
2023-03-22T00:38:42.601Z,96079.56
2023-03-22T00:41:16.376Z,96071.19
2023-03-22T00:43:45.976Z,96052.19
2023-03-22T00:46:13.794Z,96068.72
2023-03-22T00:48:40.780Z,96068.44
2023-03-22T00:51:08.579Z,96052.03
2023-03-22T00:53:37.053Z,96076.13
2023-03-22T00:56:05.675Z,96054.03
2023-03-22T00:58:42.202Z,96052.47
2023-03-22T01:01:09.396Z,96062.53
2023-03-22T01:03:36.242Z,96073.88
2023-03-22T01:06:03.665Z,96039.69
2023-03-22T01:08:33.327Z,96073.06
2023-03-22T01:11:01.265Z,96060.09
2023-03-22T01:13:28.938Z,96065.81
2023-03-22T01:15:55.971Z,96031.78
2023-03-22T01:18:23.328Z,96042.91
2023-03-22T01:20:51.107Z,96046.31
2023-03-22T01:23:17.793Z,96019.72
2023-03-22T01:25:44.466Z,96041.06
2023-03-22T01:28:11.122Z,96024.38
2023-03-22T01:30:40.818Z,96046.63
2023-03-22T01:33:08.211Z,96039.97
2023-03-22T01:35:36.353Z,96004.44
2023-03-22T01:38:04.608Z,96022.06
2023-03-22T01:40:34.634Z,96014.03
2023-03-22T01:43:01.960Z,96017.13
2023-03-22T01:45:42.068Z,96026.06
2023-03-22T01:48:27.073Z,96031.50
2023-03-22T01:51:03.330Z,96026.09
2023-03-22T01:53:38.714Z,95997.03
2023-03-22T01:56:07.768Z,95991.00
2023-03-22T01:58:37.977Z,96015.88
2023-03-22T02:01:08.638Z,96013.09
2023-03-22T02:03:59.202Z,96017.44
2023-03-22T02:06:26.981Z,96011.72
2023-03-22T02:09:12.536Z,96014.78
2023-03-22T02:11:43.118Z,95991.28
2023-03-22T02:14:52.087Z,95999.06
2023-03-22T02:18:26.632Z,96018.34
2023-03-22T02:21:44.934Z,96017.56
2023-03-22T02:24:39.189Z,96015.28
2023-03-22T02:27:35.872Z,96012.28
2023-03-22T02:30:13.377Z,96009.34
2023-03-22T02:33:12.217Z,96004.25
2023-03-22T02:35:46.402Z,96014.91
2023-03-22T02:38:24.751Z,96024.78
2023-03-22T02:40:56.595Z,96014.28
2023-03-22T02:43:38.351Z,95956.97
2023-03-22T02:46:16.728Z,95993.97
2023-03-22T02:48:58.461Z,95998.66
2023-03-22T02:51:47.880Z,96007.88
2023-03-22T02:54:35.562Z,95997.88
2023-03-22T02:57:33.737Z,95976.72
2023-03-22T03:00:02.744Z,95969.06
2023-03-22T03:02:32.422Z,95956.56
2023-03-22T03:05:00.949Z,95984.91
2023-03-22T03:07:28.937Z,95966.38
2023-03-22T03:09:56.384Z,95964.19
2023-03-22T03:12:28.165Z,95964.19
2023-03-22T03:14:56.463Z,95987.19
2023-03-22T03:17:23.137Z,95981.00
2023-03-22T03:20:01.469Z,95953.97
2023-03-22T03:22:57.471Z,95981.72
2023-03-22T03:25:38.371Z,95977.50
2023-03-22T03:28:38.203Z,95955.41
2023-03-22T03:31:07.885Z,95985.38
2023-03-22T03:33:36.385Z,95978.47
2023-03-22T03:36:11.307Z,95981.63
2023-03-22T03:38:45.264Z,95983.59
2023-03-22T03:41:21.230Z,95987.75
2023-03-22T03:43:51.393Z,95985.06
2023-03-22T03:46:18.066Z,95949.81
2023-03-22T03:48:48.562Z,95988.50
2023-03-22T03:51:15.477Z,95984.94
2023-03-22T03:53:42.598Z,96004.81
2023-03-22T03:56:10.434Z,95993.28
2023-03-22T03:58:41.961Z,95956.63
2023-03-22T04:01:09.065Z,96008.72
2023-03-22T04:03:36.355Z,95963.19
2023-03-22T04:06:11.836Z,96005.13
2023-03-22T04:08:45.553Z,95972.97
2023-03-22T04:11:14.834Z,95982.75
2023-03-22T04:13:42.738Z,96009.00
2023-03-22T04:16:13.948Z,95987.22
2023-03-22T04:18:40.736Z,95999.03
2023-03-22T04:21:09.115Z,95968.53
2023-03-22T04:23:46.846Z,95972.13
2023-03-22T04:26:14.098Z,95997.00
2023-03-22T04:28:52.288Z,95999.63
2023-03-22T04:31:19.353Z,95999.31
2023-03-22T04:34:06.625Z,95986.16
2023-03-22T04:36:47.528Z,95999.03
2023-03-22T04:39:35.047Z,95977.03
2023-03-22T04:42:20.794Z,95976.28
2023-03-22T04:44:50.727Z,95981.31
2023-03-22T04:47:18.192Z,96006.00
2023-03-22T04:49:45.314Z,95971.63
2023-03-22T04:52:12.767Z,95954.47
2023-03-22T04:54:43.418Z,95978.00
2023-03-22T04:57:11.789Z,95991.97
2023-03-22T04:59:43.012Z,96007.56
2023-03-22T05:02:10.316Z,95964.84
2023-03-22T05:04:41.638Z,95975.13
2023-03-22T05:07:27.319Z,95967.84
2023-03-22T05:09:56.993Z,95975.69
2023-03-22T05:12:23.896Z,96003.59
2023-03-22T05:14:56.054Z,95990.22
2023-03-22T05:17:27.197Z,95980.91
2023-03-22T05:19:56.481Z,96004.75
2023-03-22T05:22:23.084Z,96015.00
2023-03-22T05:24:51.765Z,96017.34
2023-03-22T05:27:31.158Z,95993.69
2023-03-22T05:30:05.490Z,95978.13
2023-03-22T05:33:04.085Z,96010.56
2023-03-22T05:35:38.591Z,96014.53
2023-03-22T05:38:07.407Z,96013.66
2023-03-22T05:40:39.695Z,95995.81
2023-03-22T05:43:06.480Z,95981.28
2023-03-22T05:45:36.960Z,95992.00
2023-03-22T05:48:23.596Z,95989.59
2023-03-22T05:50:50.554Z,95969.63
2023-03-22T05:53:17.650Z,95998.03
2023-03-22T05:56:00.658Z,96003.66
2023-03-22T05:58:30.810Z,95995.94
2023-03-22T06:01:04.152Z,95992.91
2023-03-22T06:03:46.050Z,95989.03
2023-03-22T06:06:20.533Z,95970.75
2023-03-22T06:09:07.034Z,96000.09
2023-03-22T06:11:41.571Z,95986.75
2023-03-22T06:14:08.443Z,95985.19
2023-03-22T06:16:55.519Z,95983.53
2023-03-22T06:19:22.257Z,95957.38
2023-03-22T06:21:49.156Z,95982.75
2023-03-22T06:24:17.404Z,95982.56
2023-03-22T06:26:45.316Z,95949.38
2023-03-22T06:29:12.280Z,95994.19
2023-03-22T06:31:39.401Z,95996.09
2023-03-22T06:34:07.926Z,95972.38
2023-03-22T06:36:42.320Z,95998.72
2023-03-22T06:39:16.566Z,95959.81
2023-03-22T06:41:44.936Z,95999.91
2023-03-22T06:44:11.868Z,95999.22
2023-03-22T06:46:51.005Z,95978.59
2023-03-22T06:49:36.187Z,95979.66
2023-03-22T06:52:03.879Z,95989.44
2023-03-22T06:54:31.173Z,95967.94
2023-03-22T06:56:58.082Z,95943.78
2023-03-22T06:59:24.754Z,95958.84
2023-03-22T07:01:51.654Z,95944.75
2023-03-22T07:04:20.028Z,95929.13
2023-03-22T07:06:48.296Z,95986.41
2023-03-22T07:09:15.428Z,95907.81
2023-03-22T07:11:42.266Z,96000.25
2023-03-22T07:14:09.485Z,95975.75
2023-03-22T07:16:59.073Z,96019.75
2023-03-22T07:19:28.167Z,95999.59
2023-03-22T07:21:55.517Z,95975.25
2023-03-22T07:24:23.158Z,96024.25
2023-03-22T07:26:50.457Z,95993.63
2023-03-22T07:29:21.877Z,96007.94
2023-03-22T07:31:49.209Z,95995.38
2023-03-22T07:34:22.206Z,96024.91
2023-03-22T07:37:11.917Z,96016.00
2023-03-22T07:39:40.714Z,95984.19
2023-03-22T07:42:07.436Z,95977.53
2023-03-22T07:45:00.517Z,95993.06
2023-03-22T07:47:40.317Z,96029.72
2023-03-22T07:50:27.461Z,96025.16
2023-03-22T07:52:56.355Z,96013.47
2023-03-22T07:55:23.082Z,96036.06
2023-03-22T07:57:49.771Z,95995.41
2023-03-22T08:00:17.265Z,95996.06
2023-03-22T08:02:50.003Z,96007.66
2023-03-22T08:05:54.987Z,96004.34
2023-03-22T08:08:21.680Z,96009.16
2023-03-22T08:10:49.449Z,95992.19
2023-03-22T08:13:16.380Z,96008.50
2023-03-22T08:15:43.412Z,96005.84
2023-03-22T08:18:10.769Z,96023.00
2023-03-22T08:20:40.067Z,96038.72
2023-03-22T08:23:15.956Z,96031.09
2023-03-22T08:26:09.675Z,96040.41
2023-03-22T08:28:36.823Z,96004.78
2023-03-22T08:31:13.197Z,96034.28
2023-03-22T08:33:41.169Z,96003.44
2023-03-22T08:36:10.549Z,96043.28
2023-03-22T08:38:45.325Z,96039.09
2023-03-22T08:41:15.893Z,96018.19
2023-03-22T08:43:43.064Z,96037.44
2023-03-22T08:46:10.165Z,96035.22
2023-03-22T08:48:37.984Z,96001.78
2023-03-22T08:51:10.662Z,95934.47
2023-03-22T08:53:58.777Z,96037.44
2023-03-22T08:56:44.721Z,96034.50
2023-03-22T08:59:34.958Z,95997.06
2023-03-22T09:02:27.724Z,95968.59
2023-03-22T09:04:56.137Z,96019.59
2023-03-22T09:07:24.205Z,96014.91
2023-03-22T09:10:02.111Z,95995.03
2023-03-22T09:12:29.750Z,95995.34
2023-03-22T09:14:56.998Z,95967.72
2023-03-22T09:17:25.883Z,96025.41
2023-03-22T09:20:02.761Z,96011.75
2023-03-22T09:22:37.256Z,95984.34
2023-03-22T09:25:04.416Z,96015.38
2023-03-22T09:27:32.570Z,95999.06
2023-03-22T09:30:00.144Z,95986.06
2023-03-22T09:32:26.862Z,96014.69
2023-03-22T09:34:59.534Z,96012.50
2023-03-22T09:37:34.262Z,96006.66
2023-03-22T09:40:00.998Z,96000.63
2023-03-22T09:42:38.695Z,95988.53
2023-03-22T09:45:13.529Z,95981.56
2023-03-22T09:47:47.245Z,95903.09
2023-03-22T09:50:44.746Z,95992.81
2023-03-22T09:53:14.561Z,95947.13
2023-03-22T09:56:03.949Z,95945.66
2023-03-22T09:58:34.306Z,95982.56
2023-03-22T10:01:09.829Z,95980.09
2023-03-22T10:03:54.883Z,95970.00
2023-03-22T10:06:25.021Z,95980.94
2023-03-22T10:09:11.001Z,95977.19
2023-03-22T10:11:55.815Z,95975.38
2023-03-22T10:14:46.169Z,95981.25
2023-03-22T10:17:17.089Z,95963.94
2023-03-22T10:19:57.860Z,95959.63
2023-03-22T10:22:30.177Z,95984.63
2023-03-22T10:24:58.017Z,95978.66
2023-03-22T10:27:26.748Z,95975.13
2023-03-22T10:30:23.084Z,95968.47
2023-03-22T10:33:00.674Z,95946.41
2023-03-22T10:35:27.929Z,95929.78
2023-03-22T10:37:57.933Z,95961.16
2023-03-22T10:40:33.016Z,95923.16
2023-03-22T10:43:08.141Z,95924.97
2023-03-22T10:45:36.308Z,95931.31
2023-03-22T10:48:14.246Z,95949.31
2023-03-22T10:50:44.408Z,95947.41
2023-03-22T10:53:46.580Z,95941.53
2023-03-22T10:56:16.824Z,95946.66
2023-03-22T10:58:43.522Z,95928.63
2023-03-22T11:01:24.188Z,95947.47
2023-03-22T11:03:52.387Z,95942.63
2023-03-22T11:06:32.895Z,95941.53
2023-03-22T11:09:02.217Z,95940.88
2023-03-22T11:11:38.455Z,95934.53
2023-03-22T11:14:11.892Z,95942.78
2023-03-22T11:16:47.807Z,95953.31
2023-03-22T11:19:25.868Z,95917.75
2023-03-22T11:21:54.111Z,95898.00
2023-03-22T11:24:22.224Z,95949.16
2023-03-22T11:27:28.824Z,95943.09
2023-03-22T11:30:19.999Z,95935.22
2023-03-22T11:32:46.878Z,95909.72
2023-03-22T11:35:28.260Z,95928.09
2023-03-22T11:37:56.110Z,95906.50
2023-03-22T11:40:36.941Z,95929.78
2023-03-22T11:43:06.582Z,95922.69
2023-03-22T11:45:37.713Z,95909.19
2023-03-22T11:48:15.351Z,95901.19
2023-03-22T11:50:44.560Z,95905.78
2023-03-22T11:53:22.444Z,95892.16
2023-03-22T11:55:51.580Z,95887.72
2023-03-22T11:58:55.359Z,95877.53
2023-03-22T12:01:51.721Z,95884.28
2023-03-22T12:04:24.678Z,95850.91
2023-03-22T12:06:55.166Z,95885.03
2023-03-22T12:09:44.907Z,95898.00
2023-03-22T12:12:19.677Z,95881.00
2023-03-22T12:15:05.156Z,95859.91
2023-03-22T12:17:40.928Z,95886.94
2023-03-22T12:20:14.030Z,95895.44
2023-03-22T12:22:51.924Z,95871.31
2023-03-22T12:25:27.177Z,95853.41
2023-03-22T12:27:58.587Z,95839.28
2023-03-22T12:30:33.792Z,95877.25
2023-03-22T12:33:16.390Z,95880.75
2023-03-22T12:35:46.244Z,95852.50
2023-03-22T12:38:48.805Z,95875.72
2023-03-22T12:41:25.321Z,95872.13
2023-03-22T12:44:14.268Z,95864.16
2023-03-22T12:46:55.956Z,95844.03
2023-03-22T12:49:36.095Z,95867.34
2023-03-22T12:52:29.780Z,95878.03
2023-03-22T12:55:01.402Z,95833.34
2023-03-22T12:57:28.406Z,95815.03
2023-03-22T13:00:00.375Z,95857.47
2023-03-22T13:02:34.313Z,95853.22
2023-03-22T13:05:09.273Z,95851.31
2023-03-22T13:07:48.263Z,95847.34
2023-03-22T13:10:29.879Z,95862.66
2023-03-22T13:13:42.237Z,95846.97
2023-03-22T13:16:08.977Z,95853.13
2023-03-22T13:18:35.782Z,95845.13
2023-03-22T13:21:09.111Z,95831.44
2023-03-22T13:23:35.869Z,95805.03
2023-03-22T13:26:04.832Z,95834.72
2023-03-22T13:28:37.247Z,95838.16
2023-03-22T13:31:05.289Z,95857.84
2023-03-22T13:33:35.475Z,95850.88
2023-03-22T13:36:23.323Z,95849.03
2023-03-22T13:39:07.388Z,95832.97
2023-03-22T13:41:34.708Z,95832.28
2023-03-22T13:44:25.057Z,95833.81
2023-03-22T13:46:56.051Z,95815.13
2023-03-22T13:49:38.646Z,95820.81
2023-03-22T13:52:08.319Z,95803.25
2023-03-22T13:54:47.768Z,95837.84
2023-03-22T13:57:39.073Z,95851.69
2023-03-22T14:00:20.602Z,95823.13
2023-03-22T14:02:50.448Z,95830.34
2023-03-22T14:05:23.360Z,95824.09
2023-03-22T14:07:56.705Z,95816.41
2023-03-22T14:10:48.827Z,95823.34
2023-03-22T14:13:26.278Z,95806.09
2023-03-22T14:16:04.372Z,95763.25
2023-03-22T14:18:34.426Z,95812.38
2023-03-22T14:21:07.609Z,95814.28
